createdAt,value
2023-03-12T00:01:18.355Z,70.67
2023-03-12T00:03:47.581Z,70.79
2023-03-12T00:06:16.709Z,70.72
2023-03-12T00:08:45.073Z,70.68
2023-03-12T00:11:18.315Z,70.69
2023-03-12T00:13:53.498Z,70.61
2023-03-12T00:16:22.514Z,70.68
2023-03-12T00:18:52.713Z,70.36
2023-03-12T00:21:22.453Z,70.55
2023-03-12T00:23:51.613Z,70.52
2023-03-12T00:26:20.974Z,70.52
2023-03-12T00:28:50.778Z,70.40
2023-03-12T00:31:27.320Z,70.29
2023-03-12T00:33:56.571Z,70.31
2023-03-12T00:36:27.043Z,70.39
2023-03-12T00:38:56.796Z,70.33
2023-03-12T00:41:25.792Z,70.27
2023-03-12T00:43:53.880Z,70.24
2023-03-12T00:46:22.252Z,70.20
2023-03-12T00:48:50.570Z,70.38
2023-03-12T00:51:19.371Z,70.38
2023-03-12T00:53:47.404Z,70.32
2023-03-12T00:56:15.575Z,70.27
2023-03-12T00:58:43.760Z,70.35
2023-03-12T01:01:12.550Z,70.45
2023-03-12T01:03:40.541Z,70.46
2023-03-12T01:06:09.485Z,70.52
2023-03-12T01:08:38.124Z,70.58
2023-03-12T01:11:06.149Z,70.47
2023-03-12T01:13:34.295Z,70.55
2023-03-12T01:16:02.391Z,70.53
2023-03-12T01:18:30.401Z,70.52
2023-03-12T01:20:59.520Z,70.63
2023-03-12T01:23:27.519Z,70.69
2023-03-12T01:25:56.600Z,70.69
2023-03-12T01:28:25.324Z,70.64
2023-03-12T01:30:53.592Z,70.43
2023-03-12T01:33:25.197Z,70.46
2023-03-12T01:35:53.374Z,70.58
2023-03-12T01:38:21.403Z,70.51
2023-03-12T01:40:49.284Z,70.49
2023-03-12T01:43:26.165Z,70.44
2023-03-12T01:46:03.365Z,70.54
2023-03-12T01:48:42.436Z,70.44
2023-03-12T01:51:13.642Z,70.37
2023-03-12T01:53:45.458Z,70.30
2023-03-12T01:56:15.683Z,70.22
2023-03-12T01:58:48.366Z,70.37
2023-03-12T02:01:19.026Z,70.22
2023-03-12T02:03:52.150Z,70.24
2023-03-12T02:06:31.099Z,70.31
2023-03-12T02:09:02.911Z,70.31
2023-03-12T02:11:31.623Z,70.25
2023-03-12T02:14:00.364Z,70.18
2023-03-12T02:16:28.601Z,70.08
2023-03-12T02:19:00.435Z,70.13
2023-03-12T02:21:33.762Z,70.18
2023-03-12T02:24:02.363Z,70.18
2023-03-12T02:26:31.544Z,70.20
2023-03-12T02:29:01.086Z,70.11
2023-03-12T02:31:35.508Z,70.13
2023-03-12T02:34:03.567Z,70.24
2023-03-12T02:36:31.484Z,70.14
2023-03-12T02:38:59.456Z,70.06
2023-03-12T02:41:37.707Z,70.07
2023-03-12T02:44:18.184Z,70.14
2023-03-12T02:46:50.123Z,70.09
2023-03-12T02:49:20.584Z,70.07
2023-03-12T02:51:51.480Z,70.10
2023-03-12T02:54:20.978Z,70.24
2023-03-12T02:56:51.200Z,70.09
2023-03-12T02:59:25.984Z,70.08
2023-03-12T03:01:57.044Z,70.19
2023-03-12T03:04:26.942Z,70.30
2023-03-12T03:06:55.422Z,70.26
2023-03-12T03:09:24.479Z,70.05
2023-03-12T03:11:52.820Z,70.16
2023-03-12T03:14:21.163Z,70.20
2023-03-12T03:16:51.706Z,70.02
2023-03-12T03:19:21.545Z,70.09
2023-03-12T03:21:49.464Z,69.90
2023-03-12T03:24:17.546Z,69.89
2023-03-12T03:26:45.497Z,69.89
2023-03-12T03:29:14.600Z,69.96
2023-03-12T03:31:43.152Z,69.91
2023-03-12T03:34:11.335Z,69.81
2023-03-12T03:36:39.242Z,69.63
2023-03-12T03:39:11.225Z,69.84
2023-03-12T03:41:39.185Z,69.80
2023-03-12T03:44:07.966Z,69.75
2023-03-12T03:46:36.980Z,69.60
2023-03-12T03:49:07.247Z,69.66
2023-03-12T03:51:35.505Z,69.67
2023-03-12T03:54:07.396Z,69.64
2023-03-12T03:56:35.586Z,69.55
2023-03-12T03:59:04.703Z,69.42
2023-03-12T04:01:33.908Z,69.51
2023-03-12T04:04:03.072Z,69.48
2023-03-12T04:06:32.087Z,69.35
2023-03-12T04:09:00.154Z,69.32
2023-03-12T04:17:51.622Z,69.27
2023-03-12T04:20:19.412Z,69.12
2023-03-12T04:22:46.291Z,69.12
2023-03-12T04:25:13.720Z,69.23
2023-03-12T04:27:40.444Z,69.17
2023-03-12T04:30:08.045Z,68.93
2023-03-12T04:32:34.927Z,68.82
2023-03-12T04:35:01.516Z,68.81
2023-03-12T04:37:31.883Z,68.76
2023-03-12T04:39:58.466Z,68.78
2023-03-12T04:42:25.849Z,68.66
2023-03-12T04:44:52.545Z,68.61
2023-03-12T04:47:19.691Z,68.59
2023-03-12T04:49:46.397Z,68.43
2023-03-12T04:52:13.012Z,68.41
2023-03-12T04:54:40.033Z,68.42
2023-03-12T04:57:06.843Z,68.46
2023-03-12T04:59:33.393Z,68.28
2023-03-12T05:02:00.182Z,68.14
2023-03-12T05:04:28.241Z,68.21
2023-03-12T05:06:55.112Z,68.21
2023-03-12T05:09:21.700Z,68.07
2023-03-12T05:11:48.253Z,68.00
2023-03-12T05:14:17.037Z,68.06
2023-03-12T05:16:44.029Z,67.96
2023-03-12T05:19:10.578Z,67.86
2023-03-12T05:21:40.494Z,67.87
2023-03-12T05:24:08.537Z,67.82
2023-03-12T05:26:35.558Z,67.87
2023-03-12T05:29:08.326Z,67.83
2023-03-12T05:31:35.906Z,67.83
2023-03-12T05:34:04.350Z,67.71
2023-03-12T05:36:31.481Z,67.60
2023-03-12T05:38:58.979Z,67.58
2023-03-12T05:41:28.958Z,67.77
2023-03-12T05:43:59.239Z,67.68
2023-03-12T05:46:27.478Z,67.58
2023-03-12T05:48:54.337Z,67.46
2023-03-12T05:51:21.285Z,67.36
2023-03-12T05:53:48.068Z,67.38
2023-03-12T05:56:16.925Z,67.46
2023-03-12T05:58:44.672Z,67.47
2023-03-12T06:01:18.595Z,67.43
2023-03-12T06:03:45.814Z,67.23
2023-03-12T06:06:12.657Z,67.27
2023-03-12T06:08:41.474Z,66.97
2023-03-12T06:11:09.469Z,67.04
2023-03-12T06:13:36.027Z,66.86
2023-03-12T06:16:07.832Z,66.78
2023-03-12T06:18:35.697Z,66.66
2023-03-12T06:21:08.935Z,66.78
2023-03-12T06:23:35.737Z,66.52
2023-03-12T06:26:02.475Z,66.26
2023-03-12T06:28:29.829Z,66.41
2023-03-12T06:30:56.539Z,66.22
2023-03-12T06:33:23.054Z,66.16
2023-03-12T06:35:54.191Z,66.03
2023-03-12T06:38:21.186Z,66.03
2023-03-12T06:40:57.928Z,65.97
2023-03-12T06:43:26.514Z,65.62
2023-03-12T06:45:54.879Z,65.60
2023-03-12T06:48:23.026Z,65.60
2023-03-12T06:50:50.837Z,65.54
2023-03-12T06:53:18.442Z,65.44
2023-03-12T06:55:45.537Z,65.33
2023-03-12T06:58:12.725Z,65.23
2023-03-12T07:00:39.521Z,65.26
2023-03-12T07:03:06.811Z,65.04
2023-03-12T07:05:33.637Z,64.78
2023-03-12T07:08:00.791Z,64.74
2023-03-12T07:10:28.839Z,64.64
2023-03-12T07:12:56.400Z,64.53
2023-03-12T07:15:23.435Z,64.24
2023-03-12T07:17:50.361Z,64.25
2023-03-12T07:20:17.633Z,64.15
2023-03-12T07:22:44.531Z,64.03
2023-03-12T07:25:11.700Z,64.24
2023-03-12T07:27:38.422Z,64.12
2023-03-12T07:30:05.974Z,63.81
2023-03-12T07:32:32.929Z,63.71
2023-03-12T07:35:00.039Z,63.58
2023-03-12T07:37:26.922Z,63.74
2023-03-12T07:39:54.191Z,63.71
2023-03-12T07:42:22.042Z,63.54
2023-03-12T07:44:48.925Z,63.00
2023-03-12T07:47:23.825Z,63.15
2023-03-12T07:49:51.721Z,63.25
2023-03-12T07:52:19.512Z,63.27
2023-03-12T07:54:46.550Z,63.00
2023-03-12T07:57:13.642Z,62.46
2023-03-12T07:59:40.579Z,62.52
2023-03-12T08:02:09.777Z,62.87
2023-03-12T08:04:36.697Z,62.78
2023-03-12T08:07:04.153Z,62.65
2023-03-12T08:09:32.040Z,62.62
2023-03-12T08:11:59.355Z,62.75
2023-03-12T08:14:30.902Z,62.60
2023-03-12T08:16:58.285Z,62.01
2023-03-12T08:19:26.155Z,62.16
2023-03-12T08:21:53.455Z,61.80
2023-03-12T08:24:21.362Z,61.89
2023-03-12T08:26:48.299Z,61.91
2023-03-12T08:29:16.177Z,62.31
2023-03-12T08:31:57.391Z,62.09
2023-03-12T08:34:29.989Z,61.90
2023-03-12T08:36:56.777Z,63.06
2023-03-12T08:39:23.644Z,65.22
2023-03-12T08:41:54.841Z,64.34
2023-03-12T08:44:24.993Z,63.92
2023-03-12T08:46:52.693Z,63.81
2023-03-12T08:49:20.894Z,63.03
2023-03-12T08:51:48.066Z,62.63
2023-03-12T08:54:14.811Z,62.04
2023-03-12T08:56:42.888Z,61.34
2023-03-12T08:59:11.078Z,60.88
2023-03-12T09:01:38.132Z,61.00
2023-03-12T09:04:05.571Z,60.75
2023-03-12T09:06:34.825Z,60.73
2023-03-12T09:09:04.627Z,60.31
2023-03-12T09:11:33.345Z,60.27
2023-03-12T09:16:48.594Z,60.51
2023-03-12T09:19:15.911Z,60.19
2023-03-12T09:21:42.970Z,60.33
2023-03-12T09:24:10.659Z,60.03
2023-03-12T09:26:37.801Z,60.48
2023-03-12T09:29:05.007Z,60.57
2023-03-12T09:31:31.853Z,60.37
2023-03-12T09:33:58.689Z,60.22
2023-03-12T09:36:25.279Z,59.69
2023-03-12T09:38:52.110Z,59.61
2023-03-12T09:41:28.566Z,59.79
2023-03-12T09:44:01.610Z,59.44
2023-03-12T09:46:42.366Z,59.29
2023-03-12T09:49:25.985Z,59.12
2023-03-12T09:51:56.229Z,59.25
2023-03-12T09:54:37.376Z,59.49
2023-03-12T09:57:11.976Z,59.48
2023-03-12T09:59:38.774Z,59.48
2023-03-12T10:02:27.335Z,58.78
2023-03-12T10:05:04.273Z,58.56
2023-03-12T10:07:37.248Z,58.00
2023-03-12T10:10:44.496Z,57.58
2023-03-12T10:13:22.584Z,58.25
2023-03-12T10:16:11.001Z,58.49
2023-03-12T10:18:55.411Z,58.29
2023-03-12T10:21:34.403Z,57.94
2023-03-12T10:24:16.082Z,57.65
2023-03-12T10:26:46.542Z,57.77
2023-03-12T10:29:35.874Z,57.74
2023-03-12T10:32:15.946Z,57.80
2023-03-12T10:34:47.053Z,57.43
2023-03-12T10:37:20.447Z,57.09
2023-03-12T10:39:48.175Z,57.41
2023-03-12T10:42:20.941Z,57.54
2023-03-12T10:44:55.570Z,56.81
2023-03-12T10:47:34.844Z,57.08
2023-03-12T10:50:14.773Z,56.78
2023-03-12T10:52:42.577Z,56.74
2023-03-12T10:55:29.035Z,56.47
2023-03-12T10:57:56.023Z,56.71
2023-03-12T11:00:25.656Z,56.64
2023-03-12T11:03:02.960Z,56.45
2023-03-12T11:05:48.320Z,56.44
2023-03-12T11:08:33.102Z,56.17
2023-03-12T11:11:01.455Z,56.53
2023-03-12T11:13:38.488Z,56.34
2023-03-12T11:16:17.367Z,55.79
2023-03-12T11:19:03.256Z,55.24
2023-03-12T11:21:35.049Z,55.19
2023-03-12T11:24:08.365Z,55.17
2023-03-12T11:26:53.954Z,55.49
2023-03-12T11:29:32.589Z,55.48
2023-03-12T11:32:37.586Z,55.55
2023-03-12T11:35:10.614Z,55.85
2023-03-12T11:38:02.611Z,55.30
2023-03-12T11:40:50.227Z,54.23
2023-03-12T11:43:43.206Z,54.22
2023-03-12T11:46:16.927Z,54.03
2023-03-12T11:48:50.737Z,53.36
2023-03-12T11:51:20.322Z,54.36
2023-03-12T11:53:53.876Z,54.58
2023-03-12T11:56:33.902Z,54.47
2023-03-12T11:59:14.171Z,54.40
2023-03-12T12:02:18.919Z,53.85
2023-03-12T12:05:19.724Z,54.06
2023-03-12T12:08:12.697Z,54.18
2023-03-12T12:11:03.366Z,54.26
2023-03-12T12:13:50.488Z,54.00
2023-03-12T12:17:16.340Z,54.01
2023-03-12T12:19:53.662Z,54.02
2023-03-12T12:22:31.249Z,53.86
2023-03-12T12:25:47.125Z,53.99
2023-03-12T12:28:18.060Z,54.14
2023-03-12T12:31:09.112Z,53.85
2023-03-12T12:33:55.797Z,53.52
2023-03-12T12:36:28.190Z,53.42
2023-03-12T12:39:01.578Z,53.40
2023-03-12T12:41:34.829Z,53.42
2023-03-12T12:44:11.337Z,53.40
2023-03-12T12:46:45.243Z,53.00
2023-03-12T12:49:19.830Z,53.03
2023-03-12T12:51:53.560Z,52.98
2023-03-12T12:54:51.365Z,52.81
2023-03-12T12:57:38.286Z,52.33
2023-03-12T13:00:20.991Z,52.48
2023-03-12T13:02:50.557Z,52.33
2023-03-12T13:05:40.020Z,52.38
2023-03-12T13:08:11.255Z,52.16
2023-03-12T13:10:48.773Z,52.01
2023-03-12T13:13:27.480Z,52.00
2023-03-12T13:16:19.520Z,51.89
2023-03-12T13:19:06.281Z,51.74
2023-03-12T13:21:40.670Z,51.75
2023-03-12T13:24:26.618Z,51.22
2023-03-12T13:26:57.469Z,51.25
2023-03-12T13:29:28.420Z,51.03
2023-03-12T13:31:56.780Z,50.96
2023-03-12T13:34:27.545Z,51.05
2023-03-12T13:37:02.889Z,50.92
2023-03-12T13:39:37.259Z,50.92
2023-03-12T13:42:23.528Z,50.97
2023-03-12T13:44:53.421Z,50.64
2023-03-12T13:47:30.958Z,50.41
2023-03-12T13:50:00.880Z,50.43
2023-03-12T13:52:31.210Z,50.43
2023-03-12T13:55:26.842Z,50.25
2023-03-12T13:57:58.678Z,50.11
2023-03-12T14:00:30.952Z,50.21
2023-03-12T14:03:24.967Z,49.99
2023-03-12T14:06:00.336Z,49.84
2023-03-12T14:08:47.060Z,49.97
2023-03-12T14:11:31.383Z,49.99
2023-03-12T14:14:24.610Z,49.86
2023-03-12T14:16:55.907Z,49.73
2023-03-12T14:19:27.077Z,49.65
2023-03-12T14:21:57.547Z,49.07
2023-03-12T14:24:30.037Z,49.04
2023-03-12T14:26:59.964Z,48.82
2023-03-12T14:29:47.439Z,48.78
2023-03-12T14:32:26.521Z,48.85
2023-03-12T14:35:02.791Z,48.86
2023-03-12T14:37:40.642Z,48.70
2023-03-12T14:40:22.322Z,48.77
2023-03-12T14:42:50.358Z,48.71
2023-03-12T14:45:21.053Z,48.44
2023-03-12T14:47:55.383Z,48.51
2023-03-12T14:50:39.271Z,48.55
2023-03-12T14:53:12.142Z,48.57
2023-03-12T14:55:40.244Z,48.41
2023-03-12T14:58:20.586Z,48.26
2023-03-12T15:01:31.966Z,48.10
2023-03-12T15:04:03.016Z,48.23
2023-03-12T15:06:32.944Z,48.39
2023-03-12T15:09:04.583Z,48.45
2023-03-12T15:11:36.342Z,48.28
2023-03-12T15:14:14.350Z,48.39
2023-03-12T15:16:44.575Z,48.41
2023-03-12T15:19:16.688Z,48.31
2023-03-12T15:21:44.991Z,48.39
2023-03-12T15:24:14.214Z,48.48
2023-03-12T15:26:43.959Z,48.49
2023-03-12T15:29:27.970Z,48.53
2023-03-12T15:31:59.213Z,48.78
2023-03-12T15:34:45.268Z,48.80
2023-03-12T15:37:22.837Z,48.82
2023-03-12T15:39:53.295Z,48.80
2023-03-12T15:42:25.001Z,48.78
2023-03-12T15:45:02.972Z,48.75
2023-03-12T15:47:33.992Z,48.70
2023-03-12T15:50:32.605Z,48.73
2023-03-12T15:53:04.270Z,48.71
2023-03-12T15:55:35.196Z,48.98
2023-03-12T15:58:04.142Z,49.03
2023-03-12T16:00:43.258Z,49.05
2023-03-12T16:03:20.504Z,49.14
2023-03-12T16:05:51.656Z,49.16
2023-03-12T16:08:22.666Z,49.24
2023-03-12T16:10:50.626Z,49.28
2023-03-12T16:13:21.491Z,49.26
2023-03-12T16:15:49.689Z,49.22
2023-03-12T16:18:20.241Z,49.40
2023-03-12T16:20:50.288Z,49.45
2023-03-12T16:23:19.514Z,49.54
2023-03-12T16:25:51.266Z,49.34
2023-03-12T16:28:21.126Z,49.55
2023-03-12T16:30:50.168Z,49.51
2023-03-12T16:33:20.833Z,49.57
2023-03-12T16:35:48.991Z,49.57
2023-03-12T16:38:17.058Z,49.66
2023-03-12T16:40:50.085Z,49.70
2023-03-12T16:43:21.503Z,49.84
2023-03-12T16:45:51.789Z,49.90
2023-03-12T16:48:25.507Z,50.14
2023-03-12T16:50:56.745Z,50.17
2023-03-12T16:53:25.609Z,50.34
2023-03-12T16:55:59.897Z,50.48
2023-03-12T16:58:30.284Z,50.69
2023-03-12T17:00:59.296Z,50.87
2023-03-12T17:03:37.102Z,50.86
2023-03-12T17:06:07.394Z,51.05
2023-03-12T17:08:36.186Z,50.95
2023-03-12T17:11:14.682Z,51.00
2023-03-12T17:13:44.296Z,51.19
2023-03-12T17:16:13.162Z,51.22
2023-03-12T17:18:41.803Z,51.28
2023-03-12T17:21:14.194Z,51.55
2023-03-12T17:23:42.241Z,51.52
2023-03-12T17:26:10.439Z,51.44
2023-03-12T17:28:39.896Z,51.68
2023-03-12T17:31:08.189Z,51.65
2023-03-12T17:33:38.205Z,51.67
2023-03-12T17:36:08.669Z,51.65
2023-03-12T17:38:37.011Z,51.78
2023-03-12T17:41:09.377Z,51.79
2023-03-12T17:43:39.610Z,51.79
2023-03-12T17:46:09.330Z,51.86
2023-03-12T17:48:37.361Z,51.75
2023-03-12T17:51:07.591Z,51.84
2023-03-12T17:53:36.286Z,51.96
2023-03-12T17:56:04.742Z,51.76
2023-03-12T17:58:32.832Z,51.85
2023-03-12T18:01:00.824Z,51.86
2023-03-12T18:03:28.776Z,51.77
2023-03-12T18:05:56.908Z,51.89
2023-03-12T18:08:24.978Z,51.88
2023-03-12T18:10:52.920Z,51.79
2023-03-12T18:13:21.208Z,51.89
2023-03-12T18:15:54.739Z,52.03
2023-03-12T18:18:25.343Z,52.06
2023-03-12T18:20:53.781Z,52.04
2023-03-12T18:23:24.025Z,52.17
2023-03-12T18:25:52.003Z,52.10
2023-03-12T18:28:21.035Z,52.17
2023-03-12T18:30:49.131Z,52.44
2023-03-12T18:33:17.431Z,52.43
2023-03-12T18:35:46.020Z,52.31
2023-03-12T18:38:13.988Z,52.38
2023-03-12T18:40:42.061Z,52.25
2023-03-12T18:43:09.940Z,52.26
2023-03-12T18:45:42.501Z,52.35
2023-03-12T18:48:10.833Z,52.47
2023-03-12T18:50:39.072Z,52.48
2023-03-12T18:53:06.911Z,52.57
2023-03-12T18:55:35.148Z,52.73
2023-03-12T18:58:03.050Z,52.74
2023-03-12T19:00:31.043Z,52.78
2023-03-12T19:02:59.102Z,52.78
2023-03-12T19:05:26.957Z,52.88
2023-03-12T19:07:55.171Z,53.04
2023-03-12T19:10:23.049Z,53.06
2023-03-12T19:12:53.596Z,53.08
2023-03-12T19:15:24.208Z,53.28
2023-03-12T19:17:52.971Z,53.33
2023-03-12T19:20:21.476Z,53.39
2023-03-12T19:22:50.049Z,53.39
2023-03-12T19:25:18.261Z,53.39
2023-03-12T19:27:48.698Z,53.53
2023-03-12T19:30:16.781Z,53.58
2023-03-12T19:32:45.034Z,53.75
2023-03-12T19:35:14.606Z,53.71
2023-03-12T19:37:43.203Z,53.74
2023-03-12T19:40:13.428Z,53.76
2023-03-12T19:42:41.910Z,53.87
2023-03-12T19:45:10.583Z,53.94
2023-03-12T19:47:38.625Z,53.93
2023-03-12T19:50:08.635Z,54.10
2023-03-12T19:52:37.232Z,54.28
2023-03-12T19:55:05.923Z,54.40
2023-03-12T19:57:34.160Z,54.42
2023-03-12T20:00:02.238Z,54.67
2023-03-12T20:02:32.533Z,54.63
2023-03-12T20:05:00.511Z,54.64
2023-03-12T20:07:28.404Z,54.85
2023-03-12T20:09:56.712Z,54.98
2023-03-12T20:12:24.939Z,55.06
2023-03-12T20:14:52.899Z,55.05
2023-03-12T20:17:20.994Z,55.22
2023-03-12T20:19:49.205Z,55.21
2023-03-12T20:22:17.154Z,55.30
2023-03-12T20:24:45.054Z,55.37
2023-03-12T20:27:13.069Z,55.50
2023-03-12T20:29:43.504Z,55.70
2023-03-12T20:32:12.472Z,55.84
2023-03-12T20:34:41.488Z,55.92
2023-03-12T20:37:09.470Z,56.00
2023-03-12T20:39:37.455Z,56.14
2023-03-12T20:42:05.481Z,56.25
2023-03-12T20:44:33.426Z,56.15
2023-03-12T20:47:01.458Z,56.28
2023-03-12T20:49:29.391Z,56.50
2023-03-12T20:51:57.242Z,56.49
2023-03-12T20:54:25.318Z,56.51
2023-03-12T20:56:53.440Z,56.79
2023-03-12T20:59:21.418Z,56.83
2023-03-12T21:01:49.329Z,57.13
2023-03-12T21:04:17.319Z,57.45
2023-03-12T21:06:45.274Z,60.51
2023-03-12T21:09:13.573Z,61.24
2023-03-12T21:11:41.609Z,60.43
2023-03-12T21:14:09.593Z,58.19
2023-03-12T21:16:37.617Z,57.66
2023-03-12T21:19:05.571Z,57.60
2023-03-12T21:21:36.361Z,57.55
2023-03-12T21:24:05.061Z,57.52
2023-03-12T21:26:33.140Z,57.70
2023-03-12T21:29:01.127Z,57.69
2023-03-12T21:31:29.168Z,57.88
2023-03-12T21:33:57.984Z,57.95
2023-03-12T21:36:26.318Z,57.80
2023-03-12T21:38:54.275Z,57.85
2023-03-12T21:41:22.270Z,58.02
2023-03-12T21:43:50.170Z,58.16
2023-03-12T21:46:20.384Z,58.07
2023-03-12T21:48:48.613Z,58.16
2023-03-12T21:51:17.889Z,58.21
2023-03-12T21:53:45.856Z,58.32
2023-03-12T21:56:13.806Z,58.38
2023-03-12T21:58:41.765Z,58.53
2023-03-12T22:01:12.819Z,58.59
2023-03-12T22:03:42.744Z,58.57
2023-03-12T22:06:11.992Z,58.66
2023-03-12T22:08:40.982Z,58.78
2023-03-12T22:11:09.997Z,58.80
2023-03-12T22:13:38.122Z,58.93
2023-03-12T22:16:08.291Z,59.11
2023-03-12T22:18:41.605Z,59.18
2023-03-12T22:21:15.556Z,59.26
2023-03-12T22:23:43.552Z,59.32
2023-03-12T22:26:11.585Z,59.50
2023-03-12T22:28:40.050Z,59.58
2023-03-12T22:31:09.317Z,59.50
2023-03-12T22:33:37.381Z,59.78
2023-03-12T22:36:10.702Z,59.80
2023-03-12T22:38:39.742Z,59.99
2023-03-12T22:41:28.397Z,60.02
2023-03-12T22:44:01.142Z,60.09
2023-03-12T22:46:29.129Z,60.07
2023-03-12T22:48:59.917Z,60.11
2023-03-12T22:51:29.921Z,60.12
2023-03-12T22:53:58.042Z,60.25
2023-03-12T22:56:26.636Z,60.31
2023-03-12T22:58:55.700Z,60.31
2023-03-12T23:01:23.966Z,60.29
2023-03-12T23:03:52.401Z,60.42
2023-03-12T23:06:26.665Z,60.67
2023-03-12T23:08:55.186Z,60.58
2023-03-12T23:11:25.547Z,60.63
2023-03-12T23:13:54.224Z,60.68
2023-03-12T23:16:24.819Z,60.85
2023-03-12T23:18:52.833Z,60.82
2023-03-12T23:21:23.148Z,61.00
2023-03-12T23:23:51.603Z,60.90
2023-03-12T23:26:23.254Z,60.85
2023-03-12T23:28:53.356Z,61.07
2023-03-12T23:31:22.255Z,61.11
2023-03-12T23:33:50.869Z,61.24
2023-03-12T23:36:21.216Z,61.29
2023-03-12T23:38:49.961Z,61.40
2023-03-12T23:41:20.589Z,61.62
2023-03-12T23:43:48.838Z,61.69
2023-03-12T23:46:17.754Z,61.60
2023-03-12T23:48:45.977Z,61.78
2023-03-12T23:51:20.159Z,61.81
2023-03-12T23:53:50.788Z,61.83
2023-03-12T23:56:21.456Z,61.94
2023-03-12T23:58:50.485Z,62.09
